sensor_id;sensor_type;location;lat;lon;timestamp;temperature;humidity
23371;DHT22;11858;51.056;3.712;2024-03-06T00:00:57;8.30;99.90
23371;DHT22;11858;51.056;3.712;2024-03-06T00:03:23;8.20;99.90
23371;DHT22;11858;51.056;3.712;2024-03-06T00:05:49;8.10;99.90
23371;DHT22;11858;51.056;3.712;2024-03-06T00:08:15;8.10;99.90
23371;DHT22;11858;51.056;3.712;2024-03-06T00:10:41;8.10;99.90
23371;DHT22;11858;51.056;3.712;2024-03-06T00:13:08;8.00;99.90
23371;DHT22;11858;51.056;3.712;2024-03-06T00:15:33;8.10;99.90
23371;DHT22;11858;51.056;3.712;2024-03-06T00:18:00;8.00;99.90
23371;DHT22;11858;51.056;3.712;2024-03-06T00:20:26;8.00;99.90
23371;DHT22;11858;51.056;3.712;2024-03-06T00:22:53;8.00;99.90
23371;DHT22;11858;51.056;3.712;2024-03-06T00:25:19;7.90;99.90
23371;DHT22;11858;51.056;3.712;2024-03-06T00:27:45;7.80;99.90
23371;DHT22;11858;51.056;3.712;2024-03-06T00:30:11;7.70;99.90
23371;DHT22;11858;51.056;3.712;2024-03-06T00:32:37;7.70;99.90
23371;DHT22;11858;51.056;3.712;2024-03-06T00:35:04;7.70;99.90
23371;DHT22;11858;51.056;3.712;2024-03-06T00:37:29;7.80;99.90
23371;DHT22;11858;51.056;3.712;2024-03-06T00:39:55;7.80;99.90
23371;DHT22;11858;51.056;3.712;2024-03-06T00:42:21;7.80;99.90
23371;DHT22;11858;51.056;3.712;2024-03-06T00:44:47;7.70;99.90
23371;DHT22;11858;51.056;3.712;2024-03-06T00:47:13;7.70;99.90
23371;DHT22;11858;51.056;3.712;2024-03-06T00:49:39;7.70;99.90
23371;DHT22;11858;51.056;3.712;2024-03-06T00:52:07;7.60;99.90
23371;DHT22;11858;51.056;3.712;2024-03-06T00:54:35;7.60;99.90
23371;DHT22;11858;51.056;3.712;2024-03-06T00:57:00;7.60;99.90
23371;DHT22;11858;51.056;3.712;2024-03-06T00:59:27;7.60;99.90
23371;DHT22;11858;51.056;3.712;2024-03-06T01:01:53;7.50;99.90
23371;DHT22;11858;51.056;3.712;2024-03-06T01:04:22;7.40;99.90
23371;DHT22;11858;51.056;3.712;2024-03-06T01:06:48;7.40;99.90
23371;DHT22;11858;51.056;3.712;2024-03-06T01:09:13;7.30;99.90
23371;DHT22;11858;51.056;3.712;2024-03-06T01:11:39;7.30;99.90
23371;DHT22;11858;51.056;3.712;2024-03-06T01:14:05;7.30;99.90
23371;DHT22;11858;51.056;3.712;2024-03-06T01:16:31;7.50;99.90
23371;DHT22;11858;51.056;3.712;2024-03-06T01:18:56;7.40;99.90
23371;DHT22;11858;51.056;3.712;2024-03-06T01:21:22;7.40;99.90
23371;DHT22;11858;51.056;3.712;2024-03-06T01:23:48;7.30;99.90
23371;DHT22;11858;51.056;3.712;2024-03-06T01:26:14;7.30;99.90
23371;DHT22;11858;51.056;3.712;2024-03-06T01:28:40;7.30;99.90
23371;DHT22;11858;51.056;3.712;2024-03-06T01:31:06;7.30;99.90
23371;DHT22;11858;51.056;3.712;2024-03-06T01:33:32;7.20;99.90
23371;DHT22;11858;51.056;3.712;2024-03-06T01:35:58;7.20;99.90
23371;DHT22;11858;51.056;3.712;2024-03-06T01:38:23;7.20;99.90
23371;DHT22;11858;51.056;3.712;2024-03-06T01:40:49;7.10;99.90
23371;DHT22;11858;51.056;3.712;2024-03-06T01:43:22;7.00;99.90
23371;DHT22;11858;51.056;3.712;2024-03-06T01:45:49;7.00;99.90
23371;DHT22;11858;51.056;3.712;2024-03-06T01:48:17;7.00;99.90
23371;DHT22;11858;51.056;3.712;2024-03-06T01:50:43;7.10;99.90
23371;DHT22;11858;51.056;3.712;2024-03-06T01:53:09;7.10;99.90
23371;DHT22;11858;51.056;3.712;2024-03-06T01:55:35;6.90;99.90
23371;DHT22;11858;51.056;3.712;2024-03-06T01:58:02;6.80;99.90
23371;DHT22;11858;51.056;3.712;2024-03-06T02:00:28;6.60;99.90
23371;DHT22;11858;51.056;3.712;2024-03-06T02:02:54;6.50;99.90
23371;DHT22;11858;51.056;3.712;2024-03-06T02:05:19;6.40;99.90
23371;DHT22;11858;51.056;3.712;2024-03-06T02:07:47;6.30;99.90
23371;DHT22;11858;51.056;3.712;2024-03-06T02:10:16;6.20;99.90
23371;DHT22;11858;51.056;3.712;2024-03-06T02:12:42;6.20;99.90
23371;DHT22;11858;51.056;3.712;2024-03-06T02:15:09;6.20;99.90
23371;DHT22;11858;51.056;3.712;2024-03-06T02:17:35;6.10;99.90
23371;DHT22;11858;51.056;3.712;2024-03-06T02:20:02;6.10;99.90
23371;DHT22;11858;51.056;3.712;2024-03-06T02:22:32;6.10;99.90
23371;DHT22;11858;51.056;3.712;2024-03-06T02:24:58;6.00;99.90
23371;DHT22;11858;51.056;3.712;2024-03-06T02:27:23;5.90;99.90
23371;DHT22;11858;51.056;3.712;2024-03-06T02:29:49;5.90;99.90
23371;DHT22;11858;51.056;3.712;2024-03-06T02:32:15;5.80;99.90
23371;DHT22;11858;51.056;3.712;2024-03-06T02:34:43;5.70;99.90
23371;DHT22;11858;51.056;3.712;2024-03-06T02:37:09;5.70;99.90
23371;DHT22;11858;51.056;3.712;2024-03-06T02:39:35;5.60;99.90
23371;DHT22;11858;51.056;3.712;2024-03-06T02:42:01;5.60;99.90
23371;DHT22;11858;51.056;3.712;2024-03-06T02:44:27;5.60;99.90
23371;DHT22;11858;51.056;3.712;2024-03-06T02:46:52;5.60;99.90
23371;DHT22;11858;51.056;3.712;2024-03-06T02:49:19;5.50;99.90
23371;DHT22;11858;51.056;3.712;2024-03-06T02:51:45;5.50;99.90
23371;DHT22;11858;51.056;3.712;2024-03-06T02:54:11;5.40;99.90
23371;DHT22;11858;51.056;3.712;2024-03-06T02:56:37;5.40;99.90
23371;DHT22;11858;51.056;3.712;2024-03-06T02:59:02;5.30;99.90
23371;DHT22;11858;51.056;3.712;2024-03-06T03:01:29;5.40;99.90
23371;DHT22;11858;51.056;3.712;2024-03-06T03:03:55;5.30;99.90
23371;DHT22;11858;51.056;3.712;2024-03-06T03:06:21;5.20;99.90
23371;DHT22;11858;51.056;3.712;2024-03-06T03:08:49;5.10;99.90
23371;DHT22;11858;51.056;3.712;2024-03-06T03:11:15;5.10;99.90
23371;DHT22;11858;51.056;3.712;2024-03-06T03:13:41;5.10;99.90
23371;DHT22;11858;51.056;3.712;2024-03-06T03:16:18;5.10;99.90
23371;DHT22;11858;51.056;3.712;2024-03-06T03:18:44;5.10;99.90
23371;DHT22;11858;51.056;3.712;2024-03-06T03:21:11;5.00;99.90
23371;DHT22;11858;51.056;3.712;2024-03-06T03:23:37;5.00;99.90
23371;DHT22;11858;51.056;3.712;2024-03-06T03:26:03;4.90;99.90
23371;DHT22;11858;51.056;3.712;2024-03-06T03:28:32;4.90;99.90
23371;DHT22;11858;51.056;3.712;2024-03-06T03:30:58;4.90;99.90
23371;DHT22;11858;51.056;3.712;2024-03-06T03:33:24;4.90;99.90
23371;DHT22;11858;51.056;3.712;2024-03-06T03:35:50;4.90;99.90
23371;DHT22;11858;51.056;3.712;2024-03-06T03:38:16;4.90;99.90
23371;DHT22;11858;51.056;3.712;2024-03-06T03:40:42;4.90;99.90
23371;DHT22;11858;51.056;3.712;2024-03-06T03:43:08;4.90;99.90
23371;DHT22;11858;51.056;3.712;2024-03-06T03:45:34;4.90;99.90
23371;DHT22;11858;51.056;3.712;2024-03-06T03:48:05;4.90;99.90
23371;DHT22;11858;51.056;3.712;2024-03-06T03:50:31;4.90;99.90
23371;DHT22;11858;51.056;3.712;2024-03-06T03:52:57;5.00;99.90
23371;DHT22;11858;51.056;3.712;2024-03-06T03:55:26;5.00;99.90
23371;DHT22;11858;51.056;3.712;2024-03-06T03:57:52;5.10;99.90
23371;DHT22;11858;51.056;3.712;2024-03-06T04:00:18;5.10;99.90
23371;DHT22;11858;51.056;3.712;2024-03-06T04:02:44;5.00;99.90
23371;DHT22;11858;51.056;3.712;2024-03-06T04:05:10;5.00;99.90
23371;DHT22;11858;51.056;3.712;2024-03-06T04:07:36;4.90;99.90
23371;DHT22;11858;51.056;3.712;2024-03-06T04:10:03;4.80;99.90
23371;DHT22;11858;51.056;3.712;2024-03-06T04:12:29;4.80;99.90
23371;DHT22;11858;51.056;3.712;2024-03-06T04:14:56;4.80;99.90
23371;DHT22;11858;51.056;3.712;2024-03-06T04:17:22;4.90;99.90
23371;DHT22;11858;51.056;3.712;2024-03-06T04:19:48;4.80;99.90
23371;DHT22;11858;51.056;3.712;2024-03-06T04:22:14;4.70;99.90
23371;DHT22;11858;51.056;3.712;2024-03-06T04:24:43;4.70;99.90
23371;DHT22;11858;51.056;3.712;2024-03-06T04:27:10;4.60;99.90
23371;DHT22;11858;51.056;3.712;2024-03-06T04:29:36;4.60;99.90
23371;DHT22;11858;51.056;3.712;2024-03-06T04:32:02;4.60;99.90
23371;DHT22;11858;51.056;3.712;2024-03-06T04:34:27;4.60;99.90
23371;DHT22;11858;51.056;3.712;2024-03-06T04:36:53;4.60;99.90
23371;DHT22;11858;51.056;3.712;2024-03-06T04:39:19;4.50;99.90
23371;DHT22;11858;51.056;3.712;2024-03-06T04:41:45;4.50;99.90
23371;DHT22;11858;51.056;3.712;2024-03-06T04:44:11;4.50;99.90
23371;DHT22;11858;51.056;3.712;2024-03-06T04:46:36;4.50;99.90
23371;DHT22;11858;51.056;3.712;2024-03-06T04:49:02;4.50;99.90
23371;DHT22;11858;51.056;3.712;2024-03-06T04:51:28;4.50;99.90
23371;DHT22;11858;51.056;3.712;2024-03-06T04:53:54;4.50;99.90
23371;DHT22;11858;51.056;3.712;2024-03-06T04:56:20;4.50;99.90
23371;DHT22;11858;51.056;3.712;2024-03-06T04:58:47;4.40;99.90
23371;DHT22;11858;51.056;3.712;2024-03-06T05:01:13;4.40;99.90
23371;DHT22;11858;51.056;3.712;2024-03-06T05:03:39;4.30;99.90
23371;DHT22;11858;51.056;3.712;2024-03-06T05:06:05;4.30;99.90
23371;DHT22;11858;51.056;3.712;2024-03-06T05:08:32;4.40;99.90
23371;DHT22;11858;51.056;3.712;2024-03-06T05:11:00;4.40;99.90
23371;DHT22;11858;51.056;3.712;2024-03-06T05:13:26;4.30;99.90
23371;DHT22;11858;51.056;3.712;2024-03-06T05:15:52;4.30;99.90
23371;DHT22;11858;51.056;3.712;2024-03-06T05:18:20;4.20;99.90
23371;DHT22;11858;51.056;3.712;2024-03-06T05:20:46;4.20;99.90
23371;DHT22;11858;51.056;3.712;2024-03-06T05:23:12;4.20;99.90
23371;DHT22;11858;51.056;3.712;2024-03-06T05:25:38;4.30;99.90
23371;DHT22;11858;51.056;3.712;2024-03-06T05:28:04;4.20;99.90
23371;DHT22;11858;51.056;3.712;2024-03-06T05:30:30;4.20;99.90
23371;DHT22;11858;51.056;3.712;2024-03-06T05:32:56;4.30;99.90
23371;DHT22;11858;51.056;3.712;2024-03-06T05:35:22;4.40;99.90
23371;DHT22;11858;51.056;3.712;2024-03-06T05:37:48;4.30;99.90
23371;DHT22;11858;51.056;3.712;2024-03-06T05:40:13;4.30;99.90
23371;DHT22;11858;51.056;3.712;2024-03-06T05:42:40;4.20;99.90
23371;DHT22;11858;51.056;3.712;2024-03-06T05:45:06;4.30;99.90
23371;DHT22;11858;51.056;3.712;2024-03-06T05:47:39;4.30;99.90
23371;DHT22;11858;51.056;3.712;2024-03-06T05:50:08;4.40;99.90
23371;DHT22;11858;51.056;3.712;2024-03-06T05:52:36;4.30;99.90
23371;DHT22;11858;51.056;3.712;2024-03-06T05:55:03;4.30;99.90
23371;DHT22;11858;51.056;3.712;2024-03-06T05:57:31;4.20;99.90
23371;DHT22;11858;51.056;3.712;2024-03-06T05:59:57;4.20;99.90
23371;DHT22;11858;51.056;3.712;2024-03-06T06:02:23;4.20;99.90
23371;DHT22;11858;51.056;3.712;2024-03-06T06:04:49;4.10;99.90
23371;DHT22;11858;51.056;3.712;2024-03-06T06:07:15;4.10;99.90
23371;DHT22;11858;51.056;3.712;2024-03-06T06:09:41;4.10;99.90
23371;DHT22;11858;51.056;3.712;2024-03-06T06:12:07;4.20;99.90
23371;DHT22;11858;51.056;3.712;2024-03-06T06:14:32;4.30;99.90
23371;DHT22;11858;51.056;3.712;2024-03-06T06:16:58;4.40;99.90
23371;DHT22;11858;51.056;3.712;2024-03-06T06:19:24;4.40;99.90
23371;DHT22;11858;51.056;3.712;2024-03-06T06:21:53;4.30;99.90
23371;DHT22;11858;51.056;3.712;2024-03-06T06:24:20;4.40;99.90
23371;DHT22;11858;51.056;3.712;2024-03-06T06:26:45;4.40;99.90
23371;DHT22;11858;51.056;3.712;2024-03-06T06:29:11;4.40;99.90
23371;DHT22;11858;51.056;3.712;2024-03-06T06:31:37;4.30;99.90
23371;DHT22;11858;51.056;3.712;2024-03-06T06:34:04;4.30;99.90
23371;DHT22;11858;51.056;3.712;2024-03-06T06:36:30;4.30;99.90
23371;DHT22;11858;51.056;3.712;2024-03-06T06:38:56;4.40;99.90
23371;DHT22;11858;51.056;3.712;2024-03-06T06:41:22;4.50;99.90
23371;DHT22;11858;51.056;3.712;2024-03-06T06:43:49;4.60;99.90
23371;DHT22;11858;51.056;3.712;2024-03-06T06:46:17;4.80;99.90
23371;DHT22;11858;51.056;3.712;2024-03-06T06:48:43;4.80;99.90
23371;DHT22;11858;51.056;3.712;2024-03-06T06:51:09;4.90;99.90
23371;DHT22;11858;51.056;3.712;2024-03-06T06:53:35;5.00;99.90
23371;DHT22;11858;51.056;3.712;2024-03-06T06:56:01;5.10;99.90
23371;DHT22;11858;51.056;3.712;2024-03-06T06:58:27;5.30;99.90
23371;DHT22;11858;51.056;3.712;2024-03-06T07:00:53;5.40;99.90
23371;DHT22;11858;51.056;3.712;2024-03-06T07:03:19;5.60;99.90
23371;DHT22;11858;51.056;3.712;2024-03-06T07:05:48;5.70;99.90
23371;DHT22;11858;51.056;3.712;2024-03-06T07:08:14;5.90;99.90
23371;DHT22;11858;51.056;3.712;2024-03-06T07:10:39;6.00;99.90
23371;DHT22;11858;51.056;3.712;2024-03-06T07:13:05;6.10;99.90
23371;DHT22;11858;51.056;3.712;2024-03-06T07:15:31;6.20;99.90
23371;DHT22;11858;51.056;3.712;2024-03-06T07:17:58;6.20;99.90
23371;DHT22;11858;51.056;3.712;2024-03-06T07:20:23;6.30;99.90
23371;DHT22;11858;51.056;3.712;2024-03-06T07:22:49;6.30;99.90
23371;DHT22;11858;51.056;3.712;2024-03-06T07:25:16;6.40;99.90
23371;DHT22;11858;51.056;3.712;2024-03-06T07:27:42;6.50;99.90
23371;DHT22;11858;51.056;3.712;2024-03-06T07:30:08;6.50;99.90
23371;DHT22;11858;51.056;3.712;2024-03-06T07:32:34;6.60;99.90
23371;DHT22;11858;51.056;3.712;2024-03-06T07:34:59;6.70;99.90
23371;DHT22;11858;51.056;3.712;2024-03-06T07:37:26;6.80;99.90
23371;DHT22;11858;51.056;3.712;2024-03-06T07:39:51;6.70;99.90
23371;DHT22;11858;51.056;3.712;2024-03-06T07:42:17;6.80;99.90
23371;DHT22;11858;51.056;3.712;2024-03-06T07:44:43;7.00;99.90
23371;DHT22;11858;51.056;3.712;2024-03-06T07:47:09;7.00;99.90
23371;DHT22;11858;51.056;3.712;2024-03-06T07:49:35;7.00;99.90
23371;DHT22;11858;51.056;3.712;2024-03-06T07:52:01;7.00;99.90
23371;DHT22;11858;51.056;3.712;2024-03-06T07:54:27;7.10;99.90
23371;DHT22;11858;51.056;3.712;2024-03-06T07:56:53;7.20;99.90
23371;DHT22;11858;51.056;3.712;2024-03-06T07:59:19;7.30;99.90
23371;DHT22;11858;51.056;3.712;2024-03-06T08:01:45;7.20;99.90
23371;DHT22;11858;51.056;3.712;2024-03-06T08:04:11;7.30;99.90
23371;DHT22;11858;51.056;3.712;2024-03-06T08:06:37;7.20;99.90
23371;DHT22;11858;51.056;3.712;2024-03-06T08:09:03;7.40;99.90
23371;DHT22;11858;51.056;3.712;2024-03-06T08:11:29;7.60;99.90
23371;DHT22;11858;51.056;3.712;2024-03-06T08:13:58;7.60;99.90
23371;DHT22;11858;51.056;3.712;2024-03-06T08:16:24;7.60;99.90
23371;DHT22;11858;51.056;3.712;2024-03-06T08:18:50;7.70;99.90
23371;DHT22;11858;51.056;3.712;2024-03-06T08:21:16;7.90;99.90
23371;DHT22;11858;51.056;3.712;2024-03-06T08:23:42;7.80;99.90
23371;DHT22;11858;51.056;3.712;2024-03-06T08:26:08;7.80;99.90
23371;DHT22;11858;51.056;3.712;2024-03-06T08:28:34;7.90;99.90
23371;DHT22;11858;51.056;3.712;2024-03-06T08:31:00;8.00;99.90
23371;DHT22;11858;51.056;3.712;2024-03-06T08:33:26;7.90;99.90
23371;DHT22;11858;51.056;3.712;2024-03-06T08:35:52;7.80;99.90
23371;DHT22;11858;51.056;3.712;2024-03-06T08:38:18;7.70;99.90
23371;DHT22;11858;51.056;3.712;2024-03-06T08:40:43;7.70;99.90
23371;DHT22;11858;51.056;3.712;2024-03-06T08:43:12;7.70;99.90
23371;DHT22;11858;51.056;3.712;2024-03-06T08:45:38;7.80;99.90
23371;DHT22;11858;51.056;3.712;2024-03-06T08:48:04;8.00;99.90
23371;DHT22;11858;51.056;3.712;2024-03-06T08:50:31;8.00;99.90
23371;DHT22;11858;51.056;3.712;2024-03-06T08:52:57;8.10;99.90
23371;DHT22;11858;51.056;3.712;2024-03-06T08:55:23;8.10;99.90
23371;DHT22;11858;51.056;3.712;2024-03-06T08:57:48;8.30;99.90
23371;DHT22;11858;51.056;3.712;2024-03-06T09:00:16;8.40;99.90
23371;DHT22;11858;51.056;3.712;2024-03-06T09:02:43;8.50;99.90
23371;DHT22;11858;51.056;3.712;2024-03-06T09:05:09;8.70;99.90
23371;DHT22;11858;51.056;3.712;2024-03-06T09:07:37;8.90;99.90
23371;DHT22;11858;51.056;3.712;2024-03-06T09:10:04;9.10;99.90
23371;DHT22;11858;51.056;3.712;2024-03-06T09:12:33;9.10;99.90
23371;DHT22;11858;51.056;3.712;2024-03-06T09:15:00;9.10;99.90
23371;DHT22;11858;51.056;3.712;2024-03-06T09:17:26;9.30;99.90
23371;DHT22;11858;51.056;3.712;2024-03-06T09:19:52;9.50;99.90
23371;DHT22;11858;51.056;3.712;2024-03-06T09:22:18;9.70;99.90
23371;DHT22;11858;51.056;3.712;2024-03-06T09:24:43;9.50;99.90
23371;DHT22;11858;51.056;3.712;2024-03-06T09:27:09;9.50;99.90
23371;DHT22;11858;51.056;3.712;2024-03-06T09:29:35;9.60;99.90
23371;DHT22;11858;51.056;3.712;2024-03-06T09:32:01;9.60;99.90
23371;DHT22;11858;51.056;3.712;2024-03-06T09:34:27;9.80;99.90
23371;DHT22;11858;51.056;3.712;2024-03-06T09:36:53;10.00;99.90
23371;DHT22;11858;51.056;3.712;2024-03-06T09:39:19;10.10;99.90
23371;DHT22;11858;51.056;3.712;2024-03-06T09:41:49;10.30;99.90
23371;DHT22;11858;51.056;3.712;2024-03-06T09:44:16;10.20;99.90
23371;DHT22;11858;51.056;3.712;2024-03-06T09:46:46;10.20;99.90
23371;DHT22;11858;51.056;3.712;2024-03-06T09:49:14;10.60;99.90
23371;DHT22;11858;51.056;3.712;2024-03-06T09:51:48;10.90;99.90
23371;DHT22;11858;51.056;3.712;2024-03-06T09:54:19;11.70;99.90
23371;DHT22;11858;51.056;3.712;2024-03-06T09:56:47;13.00;99.90
23371;DHT22;11858;51.056;3.712;2024-03-06T09:59:13;12.90;99.90
23371;DHT22;11858;51.056;3.712;2024-03-06T10:01:47;12.20;99.90
23371;DHT22;11858;51.056;3.712;2024-03-06T10:04:22;13.00;99.90
23371;DHT22;11858;51.056;3.712;2024-03-06T10:06:51;13.30;99.90
23371;DHT22;11858;51.056;3.712;2024-03-06T10:09:20;13.70;99.90
23371;DHT22;11858;51.056;3.712;2024-03-06T10:11:46;14.00;99.90
23371;DHT22;11858;51.056;3.712;2024-03-06T10:14:13;13.70;99.90
23371;DHT22;11858;51.056;3.712;2024-03-06T10:17:11;13.50;99.90
23371;DHT22;11858;51.056;3.712;2024-03-06T10:19:44;12.70;99.90
23371;DHT22;11858;51.056;3.712;2024-03-06T10:22:16;12.10;99.90
23371;DHT22;11858;51.056;3.712;2024-03-06T10:24:42;12.00;99.90
23371;DHT22;11858;51.056;3.712;2024-03-06T10:27:14;12.10;99.90
23371;DHT22;11858;51.056;3.712;2024-03-06T10:29:42;12.00;99.90
23371;DHT22;11858;51.056;3.712;2024-03-06T10:32:08;12.30;99.90
23371;DHT22;11858;51.056;3.712;2024-03-06T10:34:34;12.50;99.90
23371;DHT22;11858;51.056;3.712;2024-03-06T10:37:02;13.50;99.90
23371;DHT22;11858;51.056;3.712;2024-03-06T10:39:33;14.90;99.90
23371;DHT22;11858;51.056;3.712;2024-03-06T10:42:07;14.70;99.90
23371;DHT22;11858;51.056;3.712;2024-03-06T10:44:34;14.00;99.90
23371;DHT22;11858;51.056;3.712;2024-03-06T10:47:05;13.50;99.90
23371;DHT22;11858;51.056;3.712;2024-03-06T10:49:31;13.30;99.90
23371;DHT22;11858;51.056;3.712;2024-03-06T10:51:59;13.10;99.90
23371;DHT22;11858;51.056;3.712;2024-03-06T10:54:29;13.10;99.90
23371;DHT22;11858;51.056;3.712;2024-03-06T10:56:56;13.40;99.90
23371;DHT22;11858;51.056;3.712;2024-03-06T10:59:25;13.30;99.90
23371;DHT22;11858;51.056;3.712;2024-03-06T11:01:53;13.60;99.90
23371;DHT22;11858;51.056;3.712;2024-03-06T11:04:19;14.00;99.90
23371;DHT22;11858;51.056;3.712;2024-03-06T11:06:45;14.20;99.90
23371;DHT22;11858;51.056;3.712;2024-03-06T11:09:11;14.60;99.90
23371;DHT22;11858;51.056;3.712;2024-03-06T11:11:50;14.50;99.90
23371;DHT22;11858;51.056;3.712;2024-03-06T11:14:18;14.60;99.90
23371;DHT22;11858;51.056;3.712;2024-03-06T11:16:57;14.50;99.90
23371;DHT22;11858;51.056;3.712;2024-03-06T11:19:24;13.90;99.90
23371;DHT22;11858;51.056;3.712;2024-03-06T11:21:50;13.90;99.90
23371;DHT22;11858;51.056;3.712;2024-03-06T11:24:48;13.90;99.90
23371;DHT22;11858;51.056;3.712;2024-03-06T11:27:07;13.90;99.90
23371;DHT22;11858;51.056;3.712;2024-03-06T11:30:07;13.90;99.90
23371;DHT22;11858;51.056;3.712;2024-03-06T11:33:00;15.20;99.90
23371;DHT22;11858;51.056;3.712;2024-03-06T11:35:30;17.60;99.90
23371;DHT22;11858;51.056;3.712;2024-03-06T11:37:56;19.10;99.90
23371;DHT22;11858;51.056;3.712;2024-03-06T11:40:25;20.60;99.90
23371;DHT22;11858;51.056;3.712;2024-03-06T11:42:51;21.10;99.90
23371;DHT22;11858;51.056;3.712;2024-03-06T11:45:18;22.10;99.90
23371;DHT22;11858;51.056;3.712;2024-03-06T11:48:01;22.00;99.90
23371;DHT22;11858;51.056;3.712;2024-03-06T11:50:28;22.40;99.90
23371;DHT22;11858;51.056;3.712;2024-03-06T11:52:57;23.00;99.90
23371;DHT22;11858;51.056;3.712;2024-03-06T11:55:23;23.80;99.90
23371;DHT22;11858;51.056;3.712;2024-03-06T11:57:51;24.20;99.90
23371;DHT22;11858;51.056;3.712;2024-03-06T12:00:23;21.90;99.90
23371;DHT22;11858;51.056;3.712;2024-03-06T12:02:52;20.70;99.90
23371;DHT22;11858;51.056;3.712;2024-03-06T12:05:18;19.40;99.90
23371;DHT22;11858;51.056;3.712;2024-03-06T12:07:50;17.70;99.90
23371;DHT22;11858;51.056;3.712;2024-03-06T12:10:19;17.00;99.90
23371;DHT22;11858;51.056;3.712;2024-03-06T12:12:45;17.00;99.90
23371;DHT22;11858;51.056;3.712;2024-03-06T12:15:11;16.70;99.90
23371;DHT22;11858;51.056;3.712;2024-03-06T12:17:47;16.70;99.90
23371;DHT22;11858;51.056;3.712;2024-03-06T12:20:14;16.40;99.90
23371;DHT22;11858;51.056;3.712;2024-03-06T12:22:53;16.30;99.90
23371;DHT22;11858;51.056;3.712;2024-03-06T12:25:26;16.80;99.90
23371;DHT22;11858;51.056;3.712;2024-03-06T12:27:54;17.40;99.90
23371;DHT22;11858;51.056;3.712;2024-03-06T12:30:21;17.20;99.90
23371;DHT22;11858;51.056;3.712;2024-03-06T12:33:01;17.20;99.90
23371;DHT22;11858;51.056;3.712;2024-03-06T12:35:30;17.10;99.90
23371;DHT22;11858;51.056;3.712;2024-03-06T12:37:57;16.80;99.90
23371;DHT22;11858;51.056;3.712;2024-03-06T12:40:23;16.70;99.90
23371;DHT22;11858;51.056;3.712;2024-03-06T12:42:50;16.90;99.90
23371;DHT22;11858;51.056;3.712;2024-03-06T12:45:18;17.80;99.90
23371;DHT22;11858;51.056;3.712;2024-03-06T12:47:45;19.00;99.90
23371;DHT22;11858;51.056;3.712;2024-03-06T12:50:14;20.20;99.90
23371;DHT22;11858;51.056;3.712;2024-03-06T12:52:40;20.80;99.90
23371;DHT22;11858;51.056;3.712;2024-03-06T12:55:07;21.20;99.90
23371;DHT22;11858;51.056;3.712;2024-03-06T12:57:34;21.40;99.90
23371;DHT22;11858;51.056;3.712;2024-03-06T12:59:59;21.90;99.90
23371;DHT22;11858;51.056;3.712;2024-03-06T13:02:26;22.00;99.90
23371;DHT22;11858;51.056;3.712;2024-03-06T13:04:52;22.20;99.90
23371;DHT22;11858;51.056;3.712;2024-03-06T13:07:18;22.30;99.90
23371;DHT22;11858;51.056;3.712;2024-03-06T13:09:44;23.00;99.90
23371;DHT22;11858;51.056;3.712;2024-03-06T13:12:10;23.60;99.90
23371;DHT22;11858;51.056;3.712;2024-03-06T13:14:36;24.00;99.90
23371;DHT22;11858;51.056;3.712;2024-03-06T13:17:02;24.90;99.90
23371;DHT22;11858;51.056;3.712;2024-03-06T13:19:28;25.50;99.90
23371;DHT22;11858;51.056;3.712;2024-03-06T13:21:54;25.50;99.90
23371;DHT22;11858;51.056;3.712;2024-03-06T13:24:20;24.90;99.90
23371;DHT22;11858;51.056;3.712;2024-03-06T13:26:46;23.50;99.90
23371;DHT22;11858;51.056;3.712;2024-03-06T13:29:13;22.20;99.90
23371;DHT22;11858;51.056;3.712;2024-03-06T13:31:39;21.40;99.90
23371;DHT22;11858;51.056;3.712;2024-03-06T13:34:05;20.40;99.90
23371;DHT22;11858;51.056;3.712;2024-03-06T13:36:31;19.40;99.90
23371;DHT22;11858;51.056;3.712;2024-03-06T13:38:57;19.10;99.90
23371;DHT22;11858;51.056;3.712;2024-03-06T13:41:23;19.20;99.90
23371;DHT22;11858;51.056;3.712;2024-03-06T13:43:49;19.00;99.90
23371;DHT22;11858;51.056;3.712;2024-03-06T13:46:15;19.10;99.90
23371;DHT22;11858;51.056;3.712;2024-03-06T13:48:41;18.70;99.90
23371;DHT22;11858;51.056;3.712;2024-03-06T13:51:06;18.20;99.90
23371;DHT22;11858;51.056;3.712;2024-03-06T13:53:33;18.20;99.90
23371;DHT22;11858;51.056;3.712;2024-03-06T13:55:59;17.90;99.90
23371;DHT22;11858;51.056;3.712;2024-03-06T13:58:24;17.90;99.90
23371;DHT22;11858;51.056;3.712;2024-03-06T14:00:52;17.40;99.90
23371;DHT22;11858;51.056;3.712;2024-03-06T14:03:17;17.30;99.90
23371;DHT22;11858;51.056;3.712;2024-03-06T14:05:43;17.10;99.90
23371;DHT22;11858;51.056;3.712;2024-03-06T14:08:09;17.30;99.90
23371;DHT22;11858;51.056;3.712;2024-03-06T14:10:38;18.70;99.90
23371;DHT22;11858;51.056;3.712;2024-03-06T14:13:04;20.10;99.90
23371;DHT22;11858;51.056;3.712;2024-03-06T14:15:32;21.20;99.90
23371;DHT22;11858;51.056;3.712;2024-03-06T14:17:58;21.40;99.90
23371;DHT22;11858;51.056;3.712;2024-03-06T14:20:24;20.70;99.90
23371;DHT22;11858;51.056;3.712;2024-03-06T14:22:50;19.30;99.90
23371;DHT22;11858;51.056;3.712;2024-03-06T14:25:16;17.90;99.90
23371;DHT22;11858;51.056;3.712;2024-03-06T14:27:43;17.50;99.90
23371;DHT22;11858;51.056;3.712;2024-03-06T14:30:09;16.70;99.90
23371;DHT22;11858;51.056;3.712;2024-03-06T14:32:38;16.10;99.90
23371;DHT22;11858;51.056;3.712;2024-03-06T14:35:04;15.90;99.90
23371;DHT22;11858;51.056;3.712;2024-03-06T14:37:30;16.00;99.90
23371;DHT22;11858;51.056;3.712;2024-03-06T14:39:56;15.90;99.90
23371;DHT22;11858;51.056;3.712;2024-03-06T14:42:22;16.00;99.90
23371;DHT22;11858;51.056;3.712;2024-03-06T14:44:49;16.10;99.90
23371;DHT22;11858;51.056;3.712;2024-03-06T14:47:15;16.20;99.90
23371;DHT22;11858;51.056;3.712;2024-03-06T14:49:43;15.80;99.90
23371;DHT22;11858;51.056;3.712;2024-03-06T14:52:12;16.30;99.90
23371;DHT22;11858;51.056;3.712;2024-03-06T14:54:41;16.50;99.90
23371;DHT22;11858;51.056;3.712;2024-03-06T14:57:07;16.20;99.90
23371;DHT22;11858;51.056;3.712;2024-03-06T14:59:34;15.90;99.90
23371;DHT22;11858;51.056;3.712;2024-03-06T15:02:00;15.50;99.90
23371;DHT22;11858;51.056;3.712;2024-03-06T15:04:26;15.30;99.90
23371;DHT22;11858;51.056;3.712;2024-03-06T15:06:52;15.00;99.90
23371;DHT22;11858;51.056;3.712;2024-03-06T15:09:18;14.60;99.90
23371;DHT22;11858;51.056;3.712;2024-03-06T15:11:48;14.50;99.90
23371;DHT22;11858;51.056;3.712;2024-03-06T15:14:14;14.50;99.90
23371;DHT22;11858;51.056;3.712;2024-03-06T15:16:40;14.70;99.90
23371;DHT22;11858;51.056;3.712;2024-03-06T15:19:06;15.60;99.90
23371;DHT22;11858;51.056;3.712;2024-03-06T15:21:32;16.00;99.90
23371;DHT22;11858;51.056;3.712;2024-03-06T15:23:58;16.90;99.90
23371;DHT22;11858;51.056;3.712;2024-03-06T15:26:23;17.10;99.90
23371;DHT22;11858;51.056;3.712;2024-03-06T15:28:49;17.50;99.90
23371;DHT22;11858;51.056;3.712;2024-03-06T15:31:15;18.30;99.90
23371;DHT22;11858;51.056;3.712;2024-03-06T15:33:41;19.60;99.90
23371;DHT22;11858;51.056;3.712;2024-03-06T15:36:08;20.60;99.90
23371;DHT22;11858;51.056;3.712;2024-03-06T15:38:35;20.90;99.90